TSO weather

Carroll County-Tolson Airport
Carrollton, Ohio, United States

Public forecast

Using degrees Fahrenheit for public forecast. Weather courtesy of forecast.io.

Closest aviation weather report (METAR) to Carroll County-Tolson Airport

Closest report is Harry Clever Field, 16.5 nm (30.6 km) WSW. Retrieved 2019/10/14 10:53 UTC (37 minutes ago):

KPHD 141053Z AUTO 00000KT 10SM CLR 05/03 A3000 RMK AO2 SLP160 T00500028

Closest aviation forecast (TAF) to Carroll County-Tolson Airport

Closest forecast is Akron Canton Regional Airport, 27.0 nm (50.0 km) NW. Retrieved 2019/10/14 06:22 UTC (5 hours ago):

TAF KCAK 140520Z 1406/1506 23009KT P6SM SCT250 FM141600 27007KT P6SM SCT060 FM142300 00000KT P6SM FEW120